Weather  for  Lann Bihoue  -  France    France

0 °C (32 °F)

Current METAR for Lann Bihoue is :

LFRH 210230Z AUTO 33006KT CAVOK 00/M02 Q1033 TEMPO 3000 BR


This is a report for Lann Bihoue - France.
The report was made 32 minutes ago, at 02:30 UTC .
The wind was blowing at a speed of 3.1 meters per second (6.9 miles per hour) from north/northwest (330°).
The temperature was 0 °C (32 °F), with a dew-point at -2 °C (28 °F).
The temperature felt like -4 °C (26 °F).
The atmospheric pressure was 1033 hPa (30.50 inHg).
There were no clouds below 1500 meter (5000 feet) and no cumulonimbus clouds.
The overall visibility was greater than 10 kilometers (6.2 miles).


Country :   A   B   C   D   E   F   G   H   I   J   K   L   M   N   O   P   Q   R   S   T   U   V   W   Y   Z


Site Info  |  Disclaimer  |  Credits  |  Privacy
Contact us  |  Add to favorites
© 2013-2018 METARs - All rights reserved